KLBL/LBL METAR and TAF weather

Enter ICAO airport designator
Station Type Date Time Source
KLBL METAR 2020/02/20 15:56 UTC NOAA

KLBL 201556Z AUTO 36015KT 9SM -SN OVC021 M08/M10 A3071 RMK AO2 SLP434 P0000 T10781100 FZRANO


Station Type Date Time Source
KLBL Decoded METAR 2020/02/20 15:56 UTC NOAA

Liberal, Liberal Municipal Airport, KS, United States (KLBL) 37-03N 100-58W
Feb 20, 2020 - 10:56 AM EST / 2020.02.20 1556 UTC
Wind: from the N (360 degrees) at 17 MPH (15 KT):0
Visibility: 9 mile(s):0
Sky conditions: overcast
Weather: light snow
Precipitation last hour: A trace
Temperature: 18.0 F (-7.8 C)
Windchill: 3 F (-16 C):1
Dew Point: 14.0 F (-10.0 C)
Relative Humidity: 84%
Pressure (altimeter): 30.71 in. Hg (1039 hPa)
ob: KLBL 201556Z AUTO 36015KT 9SM -SN OVC021 M08/M10 A3071 RMK AO2 SLP434 P0000 T10781100 FZRANO
cycle: 16

Station Type Date Time Source
KLBL TAF 2020/02/20 12:21 UTC NOAA

TAF KLBL 201120Z 2012/2112 01015G23KT P6SM VCSH OVC010
FM201400 36013KT P6SM OVC013
FM201800 01008KT P6SM BKN040

Example: see airport list